Flight Track Log - Related Links

Times and Time Zones

All times are in EDT time to prevent confusion due to time zone crossing. See the SWA499 flight status page for this flight to view local times or setup timezone preferences in your user account.


Time Position Orientation Groundspeed Altitude Reporting Facility
EDT Latitude Longitude Course Direction KTS MPH feet Rate Location/Type
Tue 10:23:41 AM 40.8100 -111.9639 355° North 167 192 5,300  Level Salt Lake Center
Tue 10:24:45 AM 40.8689 -111.9708 355° North 197 227 8,000 3,048 Climbing Salt Lake Center
Tue 10:25:47 AM 40.9381 -111.9678 North 253 291 11,700 2,927 Climbing Salt Lake Center
Tue 10:26:48 AM 40.9483 -111.8583 83° East 311 358 14,000 2,585 Climbing Salt Lake Center
Tue 10:27:50 AM 40.9372 -111.7300 96° East 347 399 17,000 2,780 Climbing Salt Lake Center
Tue 10:28:51 AM 40.9269 -111.5928 96° East 372 428 19,700 2,585 Climbing Salt Lake Center
Tue 10:29:53 AM 40.9144 -111.4506 97° East 389 448 22,300 2,488 Climbing Salt Lake Center
Tue 10:30:54 AM 40.8969 -111.2861 98° East 412 474 24,800 2,146 Climbing Salt Lake Center
Tue 10:31:56 AM 40.8778 -111.1486 100° East 422 486 26,700 1,902 Climbing Salt Lake Center
Tue 10:32:57 AM 40.8581 -110.9686 98° East 441 507 28,700 1,756 Climbing Salt Lake Center
Tue 10:33:59 AM 40.8392 -110.8103 99° East 453 521 30,300 1,610 Climbing Salt Lake Center
Tue 10:35:00 AM 40.8156 -110.6208 99° East 466 536 32,000 1,415 Climbing Salt Lake Center
Tue 10:36:02 AM 40.7947 -110.4544 99° East 477 549 33,200 1,122 Climbing Salt Lake Center
Tue 10:37:03 AM 40.7739 -110.2833 99° East 491 565 34,300 1,415 Climbing Salt Lake Center
Tue 10:38:05 AM 40.7497 -110.0950 100° East 500 575 36,100 1,317 Climbing Salt Lake Center
Tue 10:39:06 AM 40.7319 -109.8961 97° East 492 566 37,000 439 Climbing Salt Lake Center
Tue 10:40:08 AM 40.7200 -109.7267 95° East 486 559 37,000  Level Salt Lake Center
Tue 10:41:10 AM 40.7058 -109.5289 95° East 485 558 37,000  Level Salt Lake Center
Tue 10:42:11 AM 40.6925 -109.3603 96° East 483 556 37,000  Level Salt Lake Center
Tue 10:43:13 AM 40.6800 -109.1839 95° East 484 557 37,000  Level Salt Lake Center
Tue 10:44:14 AM 40.6642 -108.9883 96° East 483 556 37,000  Level Salt Lake Center
Tue 10:45:16 AM 40.6503 -108.8206 96° East 483 556 37,000  Level Salt Lake Center
Tue 10:46:05 AM 40.6389 -108.6822 96° East 482 555 37,000  Level Denver Center
Tue 10:47:07 AM 40.6233 -108.4850 96° East 484 557 37,000  Level Denver Center
Tue 10:48:09 AM 40.6094 -108.3144 96° East 487 560 37,000 -242 Level Denver Center
Tue 10:49:11 AM 40.5928 -108.1192 96° East 482 555 36,500 -484 Descending Denver Center
Tue 10:50:13 AM 40.5781 -107.9528 97° East 480 552 36,000 -532 Descending Denver Center
Tue 10:51:15 AM 40.5631 -107.7842 97° East 483 556 35,400 -823 Descending Denver Center
Tue 10:52:17 AM 40.5853 -107.5833 82° East 498 573 34,300 -976 Descending Denver Center
Tue 10:53:18 AM 40.6114 -107.4092 79° East 505 581 33,400 -634 Descending Denver Center
Tue 10:54:20 AM 40.6467 -107.2097 77° East 509 586 33,000 -194 Descending Denver Center
Tue 10:55:22 AM 40.6783 -107.0253 77° East 512 589 33,000 -194 Level Denver Center
Tue 10:56:24 AM 40.7106 -106.8439 77° East 509 586 32,600 -726 Descending Denver Center
Tue 10:57:26 AM 40.7422 -106.6683 77° East 494 568 31,500 -1,065 Descending Denver Center
Tue 10:58:28 AM 40.7503 -106.4761 87° East 468 539 30,400 -871 Descending Denver Center
Tue 10:59:30 AM 40.7064 -106.3503 115° Southeast 473 544 29,700 -968 Descending Denver Center
Tue 11:00:32 AM 40.6339 -106.1511 116° Southeast 477 549 28,400 -1,065 Descending Denver Center
Tue 11:01:34 AM 40.5806 -106.0144 117° Southeast 471 542 27,500 -1,161 Descending Denver Center
Tue 11:02:36 AM 40.5128 -105.8386 117° Southeast 460 529 26,000 -1,839 Descending Denver Center
Tue 11:03:38 AM 40.4536 -105.6883 117° Southeast 459 528 23,700 -2,129 Descending Denver Center
Tue 11:04:40 AM 40.4008 -105.5475 116° Southeast 433 498 21,600 -1,452 Descending Denver Center
Tue 11:05:42 AM 40.3464 -105.4156 118° Southeast 409 471 20,700 -1,258 Descending Denver Center
Tue 11:06:44 AM 40.2764 -105.3097 131° Southeast 360 414 19,000 -1,403 Descending Denver Center
Tue 11:07:46 AM 40.2158 -105.2142 130° Southeast 343 395 17,800 -968 Descending Denver Center
Tue 11:08:48 AM 40.1556 -105.1214 130° Southeast 338 389 17,000 -677 Descending Denver Center
Tue 11:09:50 AM 40.0925 -105.0231 130° Southeast 328 377 16,400 -960 Descending Denver Center
Tue 11:10:53 AM 40.0353 -104.9344 130° Southeast 320 368 15,000 -1,440 Descending Denver Center
Tue 11:11:55 AM 39.9747 -104.8397 130° Southeast 314 361 13,400 -1,500 Descending Denver Center
Tue 11:12:57 AM 39.8997 -104.8047 160° South 304 350 11,900 -1,065 Descending Denver Center
Tue 11:13:59 AM 39.8178 -104.8078 182° South 273 314 11,200 -435 Descending Denver Center
Tue 11:15:01 AM 39.7503 -104.8097 181° South 243 280 11,000 -581 Descending Denver Center
Tue 11:16:03 AM 39.6797 -104.8111 181° South 235 270 10,000 -488 Descending Denver Center
Tue 11:17:04 AM 39.6236 -104.8131 182° South 239 275 10,000  Level Denver Center
Tue 11:18:07 AM 39.5411 -104.8164 182° South 239 275 10,000  Level Denver Center
Tue 11:19:09 AM 39.4733 -104.8181 181° South 239 275 10,000  Level Denver Center
Tue 11:20:11 AM 39.4003 -104.8192 181° South 243 280 10,000  Level Denver Center
Tue 11:21:13 AM 39.3719 -104.7753 130° Southeast 226 260 10,000  Level Denver Center
Tue 11:22:15 AM 39.4025 -104.7036 61° Northeast 215 247 10,000  Level Denver Center
Tue 11:23:17 AM 39.4539 -104.6681 28° Northeast 212 244 10,000  Level Denver Center
Tue 11:24:19 AM 39.5117 -104.6650 North 206 237 10,000 -48 Level Denver Center
Tue 11:25:21 AM 39.5739 -104.6642 North 209 241 9,900 -339 Descending Denver Center
Tue 11:26:23 AM 39.6322 -104.6631 North 209 241 9,300 -677 Descending Denver Center
Tue 11:27:25 AM 39.6803 -104.6622 North 205 236 8,500 -1,016 Descending Denver Center
Tue 11:28:27 AM 39.7464 -104.6617 360° North 192 221 7,200 -1,113 Descending Denver Center
Tue 11:29:29 AM 39.7933 -104.6614 360° North 160 184 6,200 -871 Descending Denver Center
Tue 11:30:31 AM 39.8322 -104.6608 North 142 163 5,400 -774 Descending Denver Center
Tue 11:32:00 AM 39.8500 -104.6667 North  Level FlightAware Approximate
Tue 11:39:00 AM 39.8617 -104.6732 North  Level Estimated
Tue 11:40:00 AM 39.8617 -104.6732 North  Level Estimated

Login

Don't have an account? Register now (free) for customized features, flight alerts, and more!